Time;durP1;ratioP1;P1;durP2;ratioP2;P2;SDS_P1;SDS_P2;PMS_P1;PMS_P2;Temp;Humidity;BMP_temperature;BMP_pressure;BME280_temperature;BME280_humidity;BME280_pressure;Samples;Min_cycle;Max_cycle;Signal;HPM_P1;HPM_P2
2024/01/11 00:00:19;;;;;;;49.25;31.92;;;-4.90;99.90;;;;;;5062567;28;20043;-88
2024/01/11 00:02:50;;;;;;;49.83;34.58;;;-5.00;99.90;;;;;;5081854;28;20109;-88
2024/01/11 00:05:36;;;;;;;52.33;33.88;;;-5.10;99.90;;;;;;5095461;28;20063;-88
2024/01/11 00:08:03;;;;;;;51.97;32.33;;;-5.10;99.90;;;;;;5051163;28;20056;-88
2024/01/11 00:10:28;;;;;;;53.20;35.17;;;-5.20;99.90;;;;;;5073023;28;20376;-88
2024/01/11 00:12:54;;;;;;;52.70;35.13;;;-5.20;99.90;;;;;;5089426;28;20067;-88
2024/01/11 00:15:20;;;;;;;55.47;35.53;;;-5.20;99.90;;;;;;5072292;28;20522;-88
2024/01/11 00:17:46;;;;;;;50.50;34.92;;;-5.30;99.90;;;;;;5069156;28;20040;-88
2024/01/11 00:20:11;;;;;;;58.17;35.92;;;-5.30;99.90;;;;;;5060374;28;20105;-88
2024/01/11 00:22:37;;;;;;;54.92;35.33;;;-5.30;99.90;;;;;;5079802;28;20036;-88
2024/01/11 00:25:04;;;;;;;55.30;36.05;;;-5.30;99.90;;;;;;5059907;28;20048;-89
2024/01/11 00:27:29;;;;;;;50.63;36.17;;;-5.30;99.90;;;;;;5057479;28;20047;-88
2024/01/11 00:29:55;;;;;;;53.60;33.97;;;-5.30;99.90;;;;;;5074101;28;20036;-89
2024/01/11 00:32:21;;;;;;;54.88;35.90;;;-5.30;99.90;;;;;;5071896;28;20047;-88
2024/01/11 00:34:47;;;;;;;52.25;36.42;;;-5.30;99.90;;;;;;5056419;28;20050;-89
2024/01/11 00:37:13;;;;;;;45.10;32.53;;;-5.40;99.90;;;;;;5071404;28;20376;-88
2024/01/11 00:39:38;;;;;;;51.63;35.25;;;-5.30;99.90;;;;;;5055647;28;20111;-89
2024/01/11 00:42:04;;;;;;;53.15;35.38;;;-5.40;99.90;;;;;;5068889;28;20040;-89
2024/01/11 00:44:30;;;;;;;53.97;35.42;;;-5.40;99.90;;;;;;5053098;28;20036;-89
2024/01/11 00:46:56;;;;;;;57.25;35.30;;;-5.40;99.90;;;;;;5067054;28;20076;-89
2024/01/11 00:49:22;;;;;;;57.63;35.05;;;-5.50;99.90;;;;;;5073412;28;20136;-89
2024/01/11 00:51:47;;;;;;;55.97;35.75;;;-5.50;99.90;;;;;;5063375;28;20066;-88
2024/01/11 00:54:13;;;;;;;53.58;34.60;;;-5.50;99.90;;;;;;5057694;28;20044;-89
2024/01/11 00:56:39;;;;;;;57.65;38.47;;;-5.50;99.90;;;;;;5075525;28;20649;-89
2024/01/11 00:59:04;;;;;;;56.53;36.95;;;-5.50;99.90;;;;;;5070017;28;20412;-89
2024/01/11 01:01:30;;;;;;;61.63;39.95;;;-5.50;99.90;;;;;;5047384;28;20045;-89
2024/01/11 01:03:56;;;;;;;53.80;37.78;;;-5.60;99.90;;;;;;5087485;28;20043;-89
2024/01/11 01:06:22;;;;;;;60.40;38.10;;;-5.60;99.90;;;;;;5067383;28;20043;-89
2024/01/11 01:08:47;;;;;;;58.53;39.67;;;-5.60;99.90;;;;;;5059444;28;20412;-89
2024/01/11 01:11:13;;;;;;;57.92;38.25;;;-5.60;99.90;;;;;;5056829;28;20049;-89
2024/01/11 01:13:39;;;;;;;61.08;38.03;;;-5.60;99.90;;;;;;5074476;28;20111;-89
2024/01/11 01:16:05;;;;;;;61.40;38.72;;;-5.60;99.90;;;;;;5056848;28;20047;-89
2024/01/11 01:18:30;;;;;;;60.58;38.58;;;-5.60;99.90;;;;;;5075946;28;20512;-90
2024/01/11 01:20:56;;;;;;;58.25;37.42;;;-5.70;99.90;;;;;;5067698;28;20404;-89
2024/01/11 01:23:22;;;;;;;57.75;39.00;;;-5.70;99.90;;;;;;5060858;28;20408;-89
2024/01/11 01:25:48;;;;;;;53.50;34.70;;;-5.70;99.90;;;;;;5061823;28;20040;-89
2024/01/11 01:28:14;;;;;;;60.40;37.55;;;-5.60;99.90;;;;;;5068214;28;20052;-89
2024/01/11 01:30:40;;;;;;;57.95;37.35;;;-5.60;99.90;;;;;;5063417;28;20185;-89
2024/01/11 01:33:05;;;;;;;58.58;38.80;;;-5.60;99.90;;;;;;5095446;28;20395;-89
2024/01/11 01:35:32;;;;;;;56.33;39.20;;;-5.60;99.90;;;;;;5060190;28;20052;-89
2024/01/11 01:37:57;;;;;;;56.67;36.45;;;-5.70;99.90;;;;;;5060941;28;20052;-89
2024/01/11 01:40:23;;;;;;;57.85;38.47;;;-5.60;99.90;;;;;;5080367;28;20526;-89
2024/01/11 01:42:49;;;;;;;60.53;38.30;;;-5.70;99.90;;;;;;5064393;28;20040;-89
2024/01/11 01:45:15;;;;;;;57.92;36.78;;;-5.70;99.90;;;;;;5063287;28;20047;-89
2024/01/11 01:47:43;;;;;;;59.33;39.25;;;-5.70;99.90;;;;;;5075104;28;20403;-88
2024/01/11 01:50:10;;;;;;;56.28;35.92;;;-5.70;99.90;;;;;;5076518;28;20047;-89
2024/01/11 01:52:37;;;;;;;61.58;40.95;;;-5.70;99.90;;;;;;5097606;28;20040;-89
2024/01/11 01:55:05;;;;;;;62.53;41.53;;;-5.70;99.90;;;;;;5080081;28;20043;-88
2024/01/11 01:57:33;;;;;;;59.25;38.10;;;-5.80;99.90;;;;;;5091327;28;20044;-89
2024/01/11 01:59:59;;;;;;;60.97;38.70;;;-5.70;99.90;;;;;;5081930;28;20123;-88
2024/01/11 02:02:25;;;;;;;61.53;38.85;;;-5.70;99.90;;;;;;5061732;28;20349;-88
2024/01/11 02:04:51;;;;;;;59.08;39.20;;;-5.70;99.90;;;;;;5074916;28;20123;-88
2024/01/11 02:07:18;;;;;;;59.33;39.85;;;-5.70;99.90;;;;;;5086417;28;20040;-89
2024/01/11 02:09:44;;;;;;;58.58;40.25;;;-5.70;99.90;;;;;;5089076;28;20469;-88
2024/01/11 02:12:12;;;;;;;57.38;39.30;;;-5.70;99.90;;;;;;5059416;28;20487;-88
2024/01/11 02:14:38;;;;;;;56.42;38.88;;;-5.70;99.90;;;;;;5069111;28;20040;-88
2024/01/11 02:17:05;;;;;;;54.67;36.97;;;-5.70;99.90;;;;;;5074658;28;20404;-88
2024/01/11 02:19:30;;;;;;;58.63;38.28;;;-5.70;99.90;;;;;;5074789;28;20040;-88
2024/01/11 02:22:00;;;;;;;63.40;39.10;;;-5.70;99.90;;;;;;5049818;28;20047;-87
2024/01/11 02:24:26;;;;;;;67.50;43.10;;;-5.80;99.90;;;;;;5082535;28;20110;-87
2024/01/11 02:27:03;;;;;;;63.50;40.70;;;-5.80;99.90;;;;;;5078114;28;20037;-87
2024/01/11 02:29:29;;;;;;;63.35;42.83;;;-5.80;99.90;;;;;;5066170;28;20075;-87
2024/01/11 02:32:01;;;;;;;63.05;37.72;;;-5.90;99.90;;;;;;5061556;28;20158;-87
2024/01/11 02:34:28;;;;;;;61.53;39.58;;;-5.90;99.90;;;;;;5091923;28;20480;-87
2024/01/11 02:36:54;;;;;;;61.33;38.55;;;-5.90;99.90;;;;;;5081006;28;20036;-86
2024/01/11 02:39:22;;;;;;;59.88;38.10;;;-5.90;99.90;;;;;;5074847;28;20122;-87
2024/01/11 02:41:50;;;;;;;59.47;40.38;;;-6.00;99.90;;;;;;5068217;28;20074;-87
2024/01/11 02:44:15;;;;;;;62.75;39.97;;;-6.00;99.90;;;;;;5061057;28;20071;-87
2024/01/11 02:46:41;;;;;;;58.70;39.72;;;-5.90;99.90;;;;;;5059471;28;20036;-87
2024/01/11 02:49:07;;;;;;;57.30;38.55;;;-5.90;99.90;;;;;;5048127;28;20545;-86
2024/01/11 02:51:33;;;;;;;62.90;38.30;;;-5.90;99.90;;;;;;5068492;28;20151;-86
2024/01/11 02:53:59;;;;;;;66.63;40.65;;;-5.90;99.90;;;;;;5071863;28;20039;-87
2024/01/11 02:56:24;;;;;;;64.43;40.47;;;-5.80;99.90;;;;;;5055246;28;20504;-86
2024/01/11 02:58:50;;;;;;;63.75;40.85;;;-5.90;99.90;;;;;;5058676;28;20587;-86
2024/01/11 03:01:16;;;;;;;66.55;42.10;;;-5.90;99.90;;;;;;5072467;28;20495;-86
2024/01/11 03:03:41;;;;;;;66.80;41.70;;;-5.90;99.90;;;;;;5075227;28;20404;-86
2024/01/11 03:06:07;;;;;;;69.90;42.58;;;-5.80;99.90;;;;;;5071760;28;20050;-86
2024/01/11 03:08:33;;;;;;;65.18;40.42;;;-5.80;99.90;;;;;;5077190;28;20870;-85
2024/01/11 03:10:59;;;;;;;69.00;44.45;;;-5.80;99.90;;;;;;5088054;28;20087;-85
2024/01/11 03:13:24;;;;;;;63.80;40.67;;;-5.80;99.90;;;;;;5082770;28;20040;-85
2024/01/11 03:15:50;;;;;;;60.85;40.03;;;-5.90;99.90;;;;;;5077314;28;20201;-85
2024/01/11 03:18:15;;;;;;;62.80;39.08;;;-5.90;99.90;;;;;;5084643;28;20043;-85
2024/01/11 03:20:41;;;;;;;60.40;39.17;;;-5.90;99.90;;;;;;5074874;28;20036;-85
2024/01/11 03:23:07;;;;;;;59.58;38.17;;;-6.00;99.90;;;;;;5070967;28;20062;-84
2024/01/11 03:25:33;;;;;;;58.38;38.00;;;-6.00;99.90;;;;;;5057117;28;20140;-85
2024/01/11 03:27:59;;;;;;;58.50;36.75;;;-6.00;99.90;;;;;;5075078;28;20448;-84
2024/01/11 03:30:25;;;;;;;53.53;35.78;;;-6.00;99.90;;;;;;5059267;28;20043;-85
2024/01/11 03:32:50;;;;;;;59.20;37.55;;;-6.00;99.90;;;;;;5064664;28;20079;-84
2024/01/11 03:35:17;;;;;;;55.38;36.38;;;-6.00;99.90;;;;;;5065954;28;20128;-84
2024/01/11 03:37:43;;;;;;;57.63;36.42;;;-6.00;99.90;;;;;;5058772;28;20498;-84
2024/01/11 03:40:09;;;;;;;61.95;40.33;;;-6.00;99.90;;;;;;5075982;28;20082;-84
2024/01/11 03:42:34;;;;;;;63.22;37.90;;;-6.00;99.90;;;;;;5081405;28;20523;-84
2024/01/11 03:45:00;;;;;;;63.60;39.63;;;-6.00;99.90;;;;;;5071255;28;20503;-84
2024/01/11 03:47:26;;;;;;;60.95;37.63;;;-6.10;99.90;;;;;;5089962;28;20100;-84
2024/01/11 03:49:51;;;;;;;58.92;36.83;;;-6.10;99.90;;;;;;5094628;28;20396;-84
2024/01/11 03:52:17;;;;;;;59.55;37.88;;;-6.10;99.90;;;;;;5074676;28;20471;-84
2024/01/11 03:54:43;;;;;;;59.47;39.42;;;-6.10;99.90;;;;;;5074118;28;20031;-84
2024/01/11 03:57:08;;;;;;;61.28;40.63;;;-6.20;99.90;;;;;;5050872;28;20043;-84
2024/01/11 03:59:35;;;;;;;63.63;37.42;;;-6.20;99.90;;;;;;5071144;28;20044;-83
2024/01/11 04:02:00;;;;;;;64.03;37.95;;;-6.10;99.90;;;;;;5060975;28;20071;-83
2024/01/11 04:04:26;;;;;;;58.88;36.53;;;-6.20;99.90;;;;;;5045738;28;20130;-83
2024/01/11 04:06:52;;;;;;;59.35;38.80;;;-6.20;99.90;;;;;;5057524;28;20039;-83
2024/01/11 04:09:18;;;;;;;60.58;39.88;;;-6.20;99.90;;;;;;5081854;28;20041;-83
2024/01/11 04:11:43;;;;;;;58.08;37.65;;;-6.20;99.90;;;;;;5054229;28;20504;-83
2024/01/11 04:14:09;;;;;;;60.50;37.83;;;-6.20;99.90;;;;;;5080902;28;20040;-83
2024/01/11 04:16:41;;;;;;;58.38;38.03;;;-6.20;99.90;;;;;;5069715;28;20522;-83
2024/01/11 04:19:06;;;;;;;61.42;40.45;;;-6.10;99.90;;;;;;5054201;28;20036;-83
2024/01/11 04:21:32;;;;;;;57.05;36.80;;;-6.10;99.90;;;;;;5095001;28;20035;-83
2024/01/11 04:23:57;;;;;;;61.45;36.65;;;-6.10;99.90;;;;;;5073483;28;20040;-83
2024/01/11 04:26:23;;;;;;;58.92;37.92;;;-6.00;99.90;;;;;;5058876;28;20036;-83
2024/01/11 04:28:50;;;;;;;61.03;39.10;;;-5.90;99.90;;;;;;5067142;28;20099;-83
2024/01/11 04:31:18;;;;;;;57.05;39.90;;;-5.90;99.90;;;;;;5069034;28;20059;-83
2024/01/11 04:33:45;;;;;;;66.13;40.78;;;-5.80;99.90;;;;;;5073096;28;20040;-83
2024/01/11 04:36:12;;;;;;;65.25;39.00;;;-5.70;99.90;;;;;;5089874;28;20052;-83
2024/01/11 04:38:38;;;;;;;66.07;40.83;;;-5.70;99.90;;;;;;5082247;28;20590;-82
2024/01/11 04:41:11;;;;;;;70.00;39.85;;;-5.60;99.90;;;;;;5068392;28;20043;-82
2024/01/11 04:43:44;;;;;;;59.88;40.17;;;-5.50;99.90;;;;;;5065677;28;20043;-82
2024/01/11 04:46:16;;;;;;;68.70;41.40;;;-5.40;99.90;;;;;;5082379;28;20052;-83
2024/01/11 04:48:43;;;;;;;64.07;38.08;;;-5.30;99.90;;;;;;5059950;28;20036;-83
2024/01/11 04:51:08;;;;;;;59.38;38.90;;;-5.20;99.90;;;;;;5078141;28;20058;-82
2024/01/11 04:53:38;;;;;;;54.10;37.60;;;-5.10;99.90;;;;;;5081040;28;20040;-82
2024/01/11 04:56:04;;;;;;;62.97;38.88;;;-5.00;99.90;;;;;;5071262;28;20036;-82
2024/01/11 04:58:29;;;;;;;65.35;40.67;;;-4.90;99.90;;;;;;5084918;28;20412;-82
2024/01/11 05:00:55;;;;;;;63.70;39.10;;;-4.80;99.90;;;;;;5073713;28;20039;-82
2024/01/11 05:03:21;;;;;;;58.72;38.72;;;-4.70;99.90;;;;;;5078589;28;20044;-82
2024/01/11 05:05:46;;;;;;;60.17;38.03;;;-4.60;99.90;;;;;;5054248;28;20071;-83
2024/01/11 05:08:12;;;;;;;68.72;39.42;;;-4.50;99.90;;;;;;5071788;28;20294;-82
2024/01/11 05:10:38;;;;;;;60.22;38.75;;;-4.40;99.90;;;;;;5049743;28;20031;-82
2024/01/11 05:13:03;;;;;;;62.25;37.63;;;-4.40;99.90;;;;;;5076119;28;20039;-82
2024/01/11 05:15:29;;;;;;;66.78;38.95;;;-4.30;99.90;;;;;;5093326;28;20484;-82
2024/01/11 05:17:58;;;;;;;61.85;40.80;;;-4.30;99.90;;;;;;5067176;28;20054;-82
2024/01/11 05:20:24;;;;;;;61.53;38.92;;;-4.20;99.90;;;;;;5071904;28;20048;-82
2024/01/11 05:22:50;;;;;;;65.13;41.70;;;-4.10;99.90;;;;;;5076718;28;20399;-82
2024/01/11 05:25:15;;;;;;;63.00;39.00;;;-4.00;99.90;;;;;;5075947;28;20528;-82
2024/01/11 05:27:41;;;;;;;59.92;37.85;;;-4.00;99.90;;;;;;5077152;28;20051;-82
2024/01/11 05:30:07;;;;;;;61.00;37.83;;;-3.90;99.90;;;;;;5054442;28;20129;-82
2024/01/11 05:32:33;;;;;;;59.90;36.10;;;-3.80;99.90;;;;;;5074925;28;20361;-82
2024/01/11 05:34:58;;;;;;;59.03;38.22;;;-3.80;99.90;;;;;;5057745;28;20043;-82
2024/01/11 05:37:24;;;;;;;62.03;37.33;;;-3.70;99.90;;;;;;5076130;28;20542;-82
2024/01/11 05:39:50;;;;;;;64.25;38.83;;;-3.70;99.90;;;;;;5076305;28;20410;-82
2024/01/11 05:42:15;;;;;;;53.80;36.13;;;-3.60;99.90;;;;;;5054907;28;20130;-82
2024/01/11 05:44:41;;;;;;;66.03;36.92;;;-3.60;99.90;;;;;;5057908;28;20048;-82
2024/01/11 05:47:07;;;;;;;60.85;38.78;;;-3.50;99.90;;;;;;5094426;28;20048;-82
2024/01/11 05:49:33;;;;;;;58.67;38.13;;;-3.50;99.90;;;;;;5048503;28;20476;-82
2024/01/11 05:51:58;;;;;;;62.50;39.05;;;-3.40;99.90;;;;;;5074053;28;20044;-82
2024/01/11 05:54:26;;;;;;;60.83;37.92;;;-3.40;99.90;;;;;;5072614;28;20155;-82
2024/01/11 05:56:55;;;;;;;60.30;39.20;;;-3.30;99.90;;;;;;5075083;28;20110;-81
2024/01/11 05:59:21;;;;;;;58.78;36.72;;;-3.30;99.90;;;;;;5086320;28;20085;-82
2024/01/11 06:01:47;;;;;;;59.75;39.50;;;-3.20;99.90;;;;;;5064482;28;20047;-82
2024/01/11 06:04:13;;;;;;;60.20;38.28;;;-3.20;99.90;;;;;;5054612;28;20044;-82
2024/01/11 06:06:40;;;;;;;58.63;37.92;;;-3.20;99.90;;;;;;5083724;28;20036;-82
2024/01/11 06:09:06;;;;;;;60.50;37.45;;;-3.10;99.90;;;;;;5076026;28;20453;-81
2024/01/11 06:11:31;;;;;;;61.50;38.60;;;-3.10;99.90;;;;;;5078177;28;20043;-81
2024/01/11 06:13:57;;;;;;;67.45;41.70;;;-3.00;99.90;;;;;;5068186;28;20043;-81
2024/01/11 06:16:23;;;;;;;66.47;41.08;;;-3.00;99.90;;;;;;5061522;28;20032;-81
2024/01/11 06:18:49;;;;;;;63.15;39.30;;;-2.90;99.90;;;;;;5072228;28;20046;-82
2024/01/11 06:21:16;;;;;;;64.30;38.28;;;-2.90;99.90;;;;;;5058335;28;20032;-81
2024/01/11 06:23:43;;;;;;;63.88;39.55;;;-2.80;99.90;;;;;;5072820;28;20047;-82
2024/01/11 06:26:09;;;;;;;63.58;39.80;;;-2.80;99.90;;;;;;5055121;28;20203;-81
2024/01/11 06:28:34;;;;;;;59.83;39.95;;;-2.80;99.90;;;;;;5094613;28;20127;-82
2024/01/11 06:31:00;;;;;;;60.88;39.08;;;-2.70;99.90;;;;;;5059828;28;20424;-82
2024/01/11 06:33:26;;;;;;;65.78;40.72;;;-2.70;99.90;;;;;;5086106;28;20129;-82
2024/01/11 06:35:52;;;;;;;66.57;40.15;;;-2.60;99.90;;;;;;5076508;28;20110;-82
2024/01/11 06:38:17;;;;;;;69.72;39.85;;;-2.60;99.90;;;;;;5097125;28;20071;-82
2024/01/11 06:40:43;;;;;;;68.95;41.80;;;-2.50;99.90;;;;;;5063442;28;20039;-81
2024/01/11 06:43:09;;;;;;;63.35;39.97;;;-2.50;99.90;;;;;;5096356;28;20487;-81
2024/01/11 06:45:35;;;;;;;57.70;38.63;;;-2.40;99.90;;;;;;5070404;28;20043;-81
2024/01/11 06:48:00;;;;;;;63.85;40.53;;;-2.40;99.90;;;;;;5057250;28;20131;-81
2024/01/11 06:50:26;;;;;;;58.50;39.05;;;-2.40;99.90;;;;;;5058246;28;20521;-82
2024/01/11 06:52:52;;;;;;;63.40;39.58;;;-2.40;99.90;;;;;;5051622;28;20032;-81
2024/01/11 06:55:17;;;;;;;60.20;37.60;;;-2.30;99.90;;;;;;5052492;28;20068;-81
2024/01/11 06:57:47;;;;;;;61.55;36.80;;;-2.30;99.90;;;;;;5090211;28;20762;-81
2024/01/11 07:00:13;;;;;;;62.78;40.42;;;-2.30;99.90;;;;;;5074669;28;20051;-81
2024/01/11 07:02:40;;;;;;;61.28;38.90;;;-2.20;99.90;;;;;;5097370;28;20466;-81
2024/01/11 07:05:06;;;;;;;56.75;38.13;;;-2.20;99.90;;;;;;5073824;28;20484;-81
2024/01/11 07:07:32;;;;;;;56.80;36.78;;;-2.20;99.90;;;;;;5049873;28;20050;-81
2024/01/11 07:09:59;;;;;;;65.95;38.53;;;-2.10;99.90;;;;;;5065530;28;20044;-81
2024/01/11 07:12:25;;;;;;;60.40;37.63;;;-2.10;99.90;;;;;;5088888;28;20119;-82
2024/01/11 07:14:51;;;;;;;61.55;38.10;;;-2.10;99.90;;;;;;5071610;28;20107;-82
2024/01/11 07:17:17;;;;;;;58.90;38.00;;;-2.10;99.90;;;;;;5081759;28;20039;-81
2024/01/11 07:19:43;;;;;;;58.13;36.75;;;-2.00;99.90;;;;;;5057781;28;20062;-82
2024/01/11 07:22:09;;;;;;;59.85;38.35;;;-2.00;99.90;;;;;;5056820;28;20039;-82
2024/01/11 07:24:37;;;;;;;65.95;39.88;;;-1.90;99.90;;;;;;5092042;28;20073;-81
2024/01/11 07:27:06;;;;;;;62.75;39.88;;;-1.90;99.90;;;;;;5052265;28;20486;-81
2024/01/11 07:29:33;;;;;;;60.95;39.22;;;-1.80;99.90;;;;;;5057224;28;20430;-81
2024/01/11 07:32:00;;;;;;;60.72;41.22;;;-1.80;99.90;;;;;;5053780;28;20067;-81
2024/01/11 07:34:26;;;;;;;61.47;39.17;;;-1.80;99.90;;;;;;5063558;28;20097;-81
2024/01/11 07:36:53;;;;;;;61.72;39.03;;;-1.80;99.90;;;;;;5065259;28;20664;-82
2024/01/11 07:39:19;;;;;;;60.45;39.67;;;-1.70;99.90;;;;;;5072629;28;20051;-81
2024/01/11 07:41:45;;;;;;;56.90;37.28;;;-1.70;99.90;;;;;;5052778;28;20045;-82
2024/01/11 07:44:11;;;;;;;64.55;38.80;;;-1.60;99.90;;;;;;5052682;28;20031;-81
2024/01/11 07:46:36;;;;;;;56.05;38.20;;;-1.70;99.90;;;;;;5070791;28;20763;-81
2024/01/11 07:49:03;;;;;;;61.72;38.58;;;-1.70;99.90;;;;;;5064502;28;20464;-82
2024/01/11 07:51:28;;;;;;;58.58;41.50;;;-1.60;99.90;;;;;;5052241;28;20036;-81
2024/01/11 07:53:58;;;;;;;68.72;40.63;;;-1.60;99.90;;;;;;5051109;28;20100;-82
2024/01/11 07:56:45;;;;;;;61.33;38.50;;;-1.60;99.90;;;;;;5077679;28;20466;-82
2024/01/11 07:59:14;;;;;;;58.13;38.38;;;-1.60;99.90;;;;;;5075595;28;20050;-82
2024/01/11 08:01:40;;;;;;;63.88;38.63;;;-1.50;99.90;;;;;;5071259;28;20112;-81
2024/01/11 08:04:06;;;;;;;57.25;36.83;;;-1.50;99.90;;;;;;5059133;28;20044;-81
2024/01/11 08:06:32;;;;;;;56.60;36.88;;;-1.40;99.90;;;;;;5093410;28;20031;-82
2024/01/11 08:08:57;;;;;;;55.40;36.65;;;-1.40;99.90;;;;;;5058378;28;20048;-81
2024/01/11 08:11:23;;;;;;;63.40;36.85;;;-1.40;99.90;;;;;;5061907;28;20046;-82
2024/01/11 08:13:49;;;;;;;56.03;36.17;;;-1.30;99.90;;;;;;5053273;28;20043;-81
2024/01/11 08:16:18;;;;;;;62.88;38.53;;;-1.30;99.90;;;;;;5053532;28;20354;-81
2024/01/11 08:18:45;;;;;;;55.83;35.58;;;-1.30;99.90;;;;;;5088621;28;20044;-81
2024/01/11 08:21:14;;;;;;;58.90;37.55;;;-1.20;99.90;;;;;;5061234;28;20105;-82
2024/01/11 08:23:48;;;;;;;54.00;34.70;;;-1.20;99.90;;;;;;5057295;28;20043;-82
2024/01/11 08:26:14;;;;;;;54.70;35.47;;;-1.20;99.90;;;;;;5054878;28;20048;-80
2024/01/11 08:28:40;;;;;;;55.13;37.00;;;-1.10;99.90;;;;;;5053089;28;20044;-80
2024/01/11 08:31:07;;;;;;;61.25;37.70;;;-1.10;99.90;;;;;;5087611;28;20054;-80
2024/01/11 08:33:32;;;;;;;59.70;38.58;;;-1.00;99.90;;;;;;5067069;28;20036;-80
2024/01/11 08:35:58;;;;;;;58.92;37.78;;;-1.00;99.90;;;;;;5089881;28;20391;-80
2024/01/11 08:38:24;;;;;;;59.28;36.08;;;-0.90;99.90;;;;;;5089753;28;20141;-80
2024/01/11 08:40:50;;;;;;;56.08;37.47;;;-0.90;99.90;;;;;;5073732;28;20581;-80
2024/01/11 08:43:15;;;;;;;53.60;37.15;;;-0.80;99.90;;;;;;5069440;28;20586;-80
2024/01/11 08:45:43;;;;;;;58.47;38.33;;;-0.80;99.90;;;;;;5083828;28;20396;-80
2024/01/11 08:48:09;;;;;;;57.67;35.72;;;-0.80;99.90;;;;;;5056316;28;20531;-80
2024/01/11 08:50:35;;;;;;;57.67;37.03;;;-0.70;99.90;;;;;;5073814;28;20044;-80
2024/01/11 08:53:01;;;;;;;58.65;36.63;;;-0.70;99.90;;;;;;5094745;28;20495;-80
2024/01/11 08:55:26;;;;;;;58.85;37.65;;;-0.60;99.90;;;;;;5072986;28;20025;-80
2024/01/11 08:57:52;;;;;;;54.78;35.92;;;-0.60;99.90;;;;;;5069965;28;20119;-80
2024/01/11 09:00:21;;;;;;;55.25;36.25;;;-0.50;99.90;;;;;;5063097;28;20510;-80
2024/01/11 09:02:46;;;;;;;57.20;37.15;;;-0.40;99.90;;;;;;5056018;28;20040;-80
2024/01/11 09:05:14;;;;;;;53.47;35.47;;;-0.40;99.90;;;;;;5066303;28;20040;-80
2024/01/11 09:07:39;;;;;;;51.83;34.75;;;-0.30;99.90;;;;;;5092940;28;20036;-80
2024/01/11 09:10:08;;;;;;;52.20;35.72;;;-0.30;99.90;;;;;;5087583;28;20033;-80
2024/01/11 09:12:34;;;;;;;54.70;36.72;;;-0.20;99.90;;;;;;5093223;28;20039;-80
2024/01/11 09:15:00;;;;;;;52.97;34.65;;;-0.20;99.90;;;;;;5070072;28;20380;-80
2024/01/11 09:17:25;;;;;;;51.55;33.25;;;-0.10;99.90;;;;;;5057098;28;20047;-80
2024/01/11 09:19:51;;;;;;;50.55;34.00;;;-0.10;99.90;;;;;;5077021;28;20121;-80
2024/01/11 09:22:17;;;;;;;48.92;33.15;;;0.00;99.90;;;;;;5056204;28;20051;-80
2024/01/11 09:24:43;;;;;;;49.88;35.65;;;0.00;99.90;;;;;;5054383;28;20035;-80
2024/01/11 09:27:08;;;;;;;52.17;34.25;;;0.10;99.90;;;;;;5071665;28;20047;-80
2024/01/11 09:29:34;;;;;;;55.28;36.35;;;0.10;99.90;;;;;;5060870;28;20318;-80
2024/01/11 09:32:00;;;;;;;54.03;34.25;;;0.20;99.90;;;;;;5092823;28;20051;-80
2024/01/11 09:34:26;;;;;;;53.38;34.28;;;0.30;99.90;;;;;;5055573;28;20036;-80
2024/01/11 09:36:52;;;;;;;50.33;34.55;;;0.30;99.90;;;;;;5074038;28;20770;-80
2024/01/11 09:39:18;;;;;;;51.83;34.30;;;0.40;99.90;;;;;;5073306;28;20032;-81
2024/01/11 09:42:07;;;;;;;47.58;32.13;;;0.40;99.90;;;;;;5057396;28;20036;-80
2024/01/11 09:44:33;;;;;;;51.05;33.88;;;0.50;99.90;;;;;;5051848;28;20122;-80
2024/01/11 09:47:01;;;;;;;54.70;35.20;;;0.60;99.90;;;;;;5071801;28;20089;-81
2024/01/11 09:49:29;;;;;;;49.88;33.20;;;0.60;99.90;;;;;;5077861;28;20039;-81
2024/01/11 09:51:56;;;;;;;49.30;32.63;;;0.70;99.90;;;;;;5075473;28;20404;-81
2024/01/11 09:54:24;;;;;;;50.33;33.95;;;0.70;99.90;;;;;;5079859;28;20563;-81
2024/01/11 09:56:53;;;;;;;48.92;31.63;;;0.70;99.90;;;;;;5098879;28;20041;-81
2024/01/11 09:59:23;;;;;;;53.08;33.88;;;0.80;99.90;;;;;;5074070;28;20047;-81
2024/01/11 10:01:50;;;;;;;48.75;32.75;;;0.80;99.90;;;;;;5071121;28;20438;-81
2024/01/11 10:04:16;;;;;;;46.22;33.38;;;0.90;99.90;;;;;;5051990;28;20461;-81
2024/01/11 10:06:43;;;;;;;49.38;33.55;;;0.90;99.90;;;;;;5077843;28;20035;-81
2024/01/11 10:09:09;;;;;;;48.60;33.17;;;1.00;99.90;;;;;;5088764;28;20035;-81
2024/01/11 10:11:35;;;;;;;46.95;31.83;;;1.00;99.90;;;;;;5079492;28;20487;-81
2024/01/11 10:14:02;;;;;;;44.72;32.00;;;1.00;99.90;;;;;;5071554;28;20384;-81
2024/01/11 10:16:28;;;;;;;45.88;30.65;;;1.10;99.90;;;;;;5056274;28;20032;-82
2024/01/11 10:18:55;;;;;;;43.92;29.25;;;1.10;99.90;;;;;;5084910;28;20220;-81
2024/01/11 10:21:21;;;;;;;48.20;32.30;;;1.10;99.90;;;;;;5065156;28;20481;-81
2024/01/11 10:23:46;;;;;;;44.70;31.10;;;1.10;99.90;;;;;;5086990;28;20059;-81
2024/01/11 10:26:15;;;;;;;47.92;31.80;;;1.10;99.90;;;;;;5089920;28;20075;-81
2024/01/11 10:28:45;;;;;;;45.47;30.02;;;1.10;99.90;;;;;;5057000;28;20050;-81
2024/01/11 10:31:11;;;;;;;47.58;31.63;;;1.20;99.90;;;;;;5058902;28;20051;-81
2024/01/11 10:33:37;;;;;;;45.83;32.28;;;1.20;99.90;;;;;;5051252;28;20032;-81
2024/01/11 10:36:03;;;;;;;47.75;31.55;;;1.20;99.90;;;;;;5061672;28;20039;-81
2024/01/11 10:38:30;;;;;;;51.92;33.88;;;1.30;99.90;;;;;;5056450;28;20160;-81
2024/01/11 10:41:00;;;;;;;51.22;34.25;;;1.30;99.90;;;;;;5076508;28;20067;-81
2024/01/11 10:43:27;;;;;;;50.97;35.00;;;1.40;99.90;;;;;;5069112;28;20044;-81
2024/01/11 10:45:57;;;;;;;54.33;34.70;;;1.40;99.90;;;;;;5101040;27;20495;-81
2024/01/11 10:48:25;;;;;;;54.67;32.90;;;1.40;99.90;;;;;;5072434;28;20040;-81
2024/01/11 10:50:58;;;;;;;56.97;36.08;;;1.40;99.90;;;;;;5083038;28;20032;-81
2024/01/11 10:53:41;;;;;;;53.05;34.15;;;1.40;99.90;;;;;;5048727;28;20040;-81
2024/01/11 10:56:09;;;;;;;49.03;34.30;;;1.50;99.90;;;;;;5066892;28;20044;-81
2024/01/11 10:58:35;;;;;;;50.63;32.55;;;1.40;99.90;;;;;;5055251;28;20055;-81
2024/01/11 11:01:04;;;;;;;52.20;34.30;;;1.50;99.90;;;;;;5065808;28;20089;-81
2024/01/11 11:03:31;;;;;;;48.28;32.83;;;1.50;99.90;;;;;;5068667;28;20044;-81
2024/01/11 11:05:58;;;;;;;51.33;34.55;;;1.50;99.90;;;;;;5087052;28;20071;-81
2024/01/11 11:08:26;;;;;;;47.50;32.95;;;1.50;99.90;;;;;;5053655;28;20074;-81
2024/01/11 11:10:57;;;;;;;46.55;32.80;;;1.60;99.90;;;;;;5061483;28;20059;-81
2024/01/11 11:13:23;;;;;;;45.58;32.45;;;1.60;99.90;;;;;;5052930;28;20037;-81
2024/01/11 11:15:49;;;;;;;42.25;30.63;;;1.70;99.90;;;;;;5070873;28;20064;-81
2024/01/11 11:18:16;;;;;;;44.78;31.55;;;1.60;99.90;;;;;;5057158;28;20064;-81
2024/01/11 11:20:42;;;;;;;40.60;30.58;;;1.70;99.90;;;;;;5054332;28;20046;-81
2024/01/11 11:23:12;;;;;;;41.53;30.25;;;1.70;99.90;;;;;;5068539;28;20511;-81
2024/01/11 11:25:40;;;;;;;43.97;31.05;;;1.70;99.90;;;;;;5070824;28;20051;-81
2024/01/11 11:28:06;;;;;;;42.83;30.33;;;1.70;99.90;;;;;;5067856;28;20518;-81
2024/01/11 11:30:40;;;;;;;40.00;29.75;;;1.80;99.90;;;;;;5066268;28;20097;-81
2024/01/11 11:33:19;;;;;;;42.30;29.65;;;1.80;99.90;;;;;;5067323;28;20040;-81
2024/01/11 11:35:49;;;;;;;43.67;28.73;;;1.90;99.90;;;;;;5051162;28;20051;-81
2024/01/11 11:38:20;;;;;;;38.90;28.60;;;1.90;99.90;;;;;;5065932;28;20063;-81
2024/01/11 11:40:47;;;;;;;41.28;30.00;;;1.90;99.90;;;;;;5087922;28;20554;-81
2024/01/11 11:43:13;;;;;;;41.22;29.90;;;1.90;99.90;;;;;;5092557;28;20055;-80
2024/01/11 11:45:41;;;;;;;44.75;30.52;;;2.00;99.90;;;;;;5068371;28;20709;-80
2024/01/11 11:48:28;;;;;;;40.60;29.15;;;2.00;99.90;;;;;;5068426;28;20044;-80
2024/01/11 11:51:11;;;;;;;41.72;30.60;;;2.00;99.90;;;;;;5067039;28;20502;-80
2024/01/11 11:53:38;;;;;;;44.85;30.88;;;2.00;99.90;;;;;;5072704;28;20389;-80
2024/01/11 11:56:04;;;;;;;46.90;32.17;;;2.00;99.90;;;;;;5068248;28;20097;-80
2024/01/11 11:58:31;;;;;;;43.50;31.02;;;2.10;99.90;;;;;;5052720;28;20089;-80
2024/01/11 12:00:58;;;;;;;42.28;30.65;;;2.10;99.90;;;;;;5052700;28;20055;-80
2024/01/11 12:03:32;;;;;;;45.75;31.92;;;2.10;99.90;;;;;;5088413;28;20036;-80
2024/01/11 12:06:00;;;;;;;44.00;31.35;;;2.10;99.90;;;;;;5061869;28;20040;-80
2024/01/11 12:08:27;;;;;;;43.33;31.13;;;2.10;99.90;;;;;;5080890;28;20047;-80
2024/01/11 12:10:53;;;;;;;43.05;30.58;;;2.10;99.90;;;;;;5059000;28;20466;-80
2024/01/11 12:13:19;;;;;;;43.75;31.10;;;2.00;99.90;;;;;;5053566;28;20044;-80
2024/01/11 12:15:46;;;;;;;42.00;30.20;;;2.00;99.90;;;;;;5086082;28;20366;-80
2024/01/11 12:18:11;;;;;;;46.33;32.60;;;2.00;99.90;;;;;;5092921;28;20047;-80
2024/01/11 12:20:37;;;;;;;46.17;31.58;;;2.00;99.90;;;;;;5075836;28;20062;-80
2024/01/11 12:23:03;;;;;;;44.22;31.08;;;2.00;99.90;;;;;;5063993;28;20503;-80
2024/01/11 12:25:29;;;;;;;45.20;32.08;;;2.00;99.90;;;;;;5076122;28;20458;-80